sensor_id;sensor_type;location;lat;lon;timestamp;noise_LAeq;noise_LA_min;noise_LA_max;noise_LA01;noise_LA95
72160;Laerm;60045;51.792;10.938;2023-04-25T00:00:32;30.24;29.07;34.10;;
72160;Laerm;60045;51.792;10.938;2023-04-25T00:02:58;51.50;29.28;70.72;;
72160;Laerm;60045;51.792;10.938;2023-04-25T00:05:25;30.86;29.42;39.36;;
72160;Laerm;60045;51.792;10.938;2023-04-25T00:07:52;31.05;29.11;34.01;;
72160;Laerm;60045;51.792;10.938;2023-04-25T00:10:19;31.97;29.93;36.27;;
72160;Laerm;60045;51.792;10.938;2023-04-25T00:12:46;34.59;30.20;55.20;;
72160;Laerm;60045;51.792;10.938;2023-04-25T00:15:12;49.32;31.06;67.11;;
72160;Laerm;60045;51.792;10.938;2023-04-25T00:17:39;35.42;30.75;46.72;;
72160;Laerm;60045;51.792;10.938;2023-04-25T00:20:06;31.22;29.72;34.70;;
72160;Laerm;60045;51.792;10.938;2023-04-25T00:22:34;31.57;29.72;39.79;;
72160;Laerm;60045;51.792;10.938;2023-04-25T00:25:03;31.53;29.85;35.72;;
72160;Laerm;60045;51.792;10.938;2023-04-25T00:27:30;32.79;30.25;44.54;;
72160;Laerm;60045;51.792;10.938;2023-04-25T00:29:56;32.59;30.12;48.71;;
72160;Laerm;60045;51.792;10.938;2023-04-25T00:32:22;31.65;30.03;33.25;;
72160;Laerm;60045;51.792;10.938;2023-04-25T00:34:49;31.92;30.11;38.20;;
72160;Laerm;60045;51.792;10.938;2023-04-25T00:37:15;31.41;29.67;34.80;;
72160;Laerm;60045;51.792;10.938;2023-04-25T00:39:41;31.42;29.72;40.70;;
72160;Laerm;60045;51.792;10.938;2023-04-25T00:42:09;31.12;29.37;33.25;;
72160;Laerm;60045;51.792;10.938;2023-04-25T00:44:35;31.39;29.79;33.39;;
72160;Laerm;60045;51.792;10.938;2023-04-25T00:47:03;53.81;29.86;73.98;;
72160;Laerm;60045;51.792;10.938;2023-04-25T00:49:29;31.61;29.67;36.98;;
72160;Laerm;60045;51.792;10.938;2023-04-25T00:51:55;31.06;29.54;34.97;;
72160;Laerm;60045;51.792;10.938;2023-04-25T00:54:22;31.20;29.55;41.18;;
72160;Laerm;60045;51.792;10.938;2023-04-25T00:56:48;35.81;29.82;51.34;;
72160;Laerm;60045;51.792;10.938;2023-04-25T00:59:16;31.85;29.32;41.09;;
72160;Laerm;60045;51.792;10.938;2023-04-25T01:01:43;34.93;28.89;55.06;;
72160;Laerm;60045;51.792;10.938;2023-04-25T01:04:09;46.46;28.72;66.82;;
72160;Laerm;60045;51.792;10.938;2023-04-25T01:06:36;49.27;29.21;66.57;;
72160;Laerm;60045;51.792;10.938;2023-04-25T01:09:02;59.46;29.86;77.48;;
72160;Laerm;60045;51.792;10.938;2023-04-25T01:11:28;56.55;29.03;75.65;;
72160;Laerm;60045;51.792;10.938;2023-04-25T01:13:55;37.08;29.11;51.37;;
72160;Laerm;60045;51.792;10.938;2023-04-25T01:16:22;30.86;28.79;38.17;;
72160;Laerm;60045;51.792;10.938;2023-04-25T01:18:49;30.31;28.73;32.73;;
72160;Laerm;60045;51.792;10.938;2023-04-25T01:21:17;30.11;28.61;40.33;;
72160;Laerm;60045;51.792;10.938;2023-04-25T01:23:44;30.16;28.34;36.10;;
72160;Laerm;60045;51.792;10.938;2023-04-25T01:26:10;30.13;28.79;31.60;;
72160;Laerm;60045;51.792;10.938;2023-04-25T01:28:38;30.10;28.86;39.49;;
72160;Laerm;60045;51.792;10.938;2023-04-25T01:31:06;30.09;28.65;33.45;;
72160;Laerm;60045;51.792;10.938;2023-04-25T01:33:32;30.01;28.75;32.45;;
72160;Laerm;60045;51.792;10.938;2023-04-25T01:35:58;30.12;28.66;34.82;;
72160;Laerm;60045;51.792;10.938;2023-04-25T01:38:26;30.50;28.89;33.13;;
72160;Laerm;60045;51.792;10.938;2023-04-25T01:40:52;30.48;28.94;40.74;;
72160;Laerm;60045;51.792;10.938;2023-04-25T01:43:19;30.23;28.72;33.55;;
72160;Laerm;60045;51.792;10.938;2023-04-25T01:45:45;30.20;28.50;33.54;;
72160;Laerm;60045;51.792;10.938;2023-04-25T01:48:12;30.29;28.88;36.73;;
72160;Laerm;60045;51.792;10.938;2023-04-25T01:50:39;31.11;29.00;42.63;;
72160;Laerm;60045;51.792;10.938;2023-04-25T01:53:06;49.97;29.90;66.44;;
72160;Laerm;60045;51.792;10.938;2023-04-25T01:55:36;30.67;29.19;34.16;;
72160;Laerm;60045;51.792;10.938;2023-04-25T01:58:02;31.04;29.41;37.45;;
72160;Laerm;60045;51.792;10.938;2023-04-25T02:00:34;30.95;29.10;34.87;;
72160;Laerm;60045;51.792;10.938;2023-04-25T02:03:00;31.92;29.47;38.99;;
72160;Laerm;60045;51.792;10.938;2023-04-25T02:05:26;57.05;29.82;73.18;;
72160;Laerm;60045;51.792;10.938;2023-04-25T02:07:53;31.61;29.70;37.33;;
72160;Laerm;60045;51.792;10.938;2023-04-25T02:10:20;32.03;30.01;35.80;;
72160;Laerm;60045;51.792;10.938;2023-04-25T02:12:47;34.35;30.90;45.62;;
72160;Laerm;60045;51.792;10.938;2023-04-25T02:15:14;60.28;31.79;78.56;;
72160;Laerm;60045;51.792;10.938;2023-04-25T02:17:40;32.51;30.28;37.27;;
72160;Laerm;60045;51.792;10.938;2023-04-25T02:20:06;58.73;30.24;76.43;;
72160;Laerm;60045;51.792;10.938;2023-04-25T02:22:33;52.53;31.93;70.86;;
72160;Laerm;60045;51.792;10.938;2023-04-25T02:25:00;34.20;30.94;40.79;;
72160;Laerm;60045;51.792;10.938;2023-04-25T02:27:26;49.85;30.64;67.26;;
72160;Laerm;60045;51.792;10.938;2023-04-25T02:29:54;34.80;30.30;44.36;;
72160;Laerm;60045;51.792;10.938;2023-04-25T02:32:20;57.90;30.60;73.75;;
72160;Laerm;60045;51.792;10.938;2023-04-25T02:34:46;37.84;30.89;56.27;;
72160;Laerm;60045;51.792;10.938;2023-04-25T02:37:13;55.18;30.70;75.45;;
72160;Laerm;60045;51.792;10.938;2023-04-25T02:39:39;52.72;31.23;70.41;;
72160;Laerm;60045;51.792;10.938;2023-04-25T02:42:05;54.09;30.74;68.73;;
72160;Laerm;60045;51.792;10.938;2023-04-25T02:44:32;33.81;30.56;45.57;;
72160;Laerm;60045;51.792;10.938;2023-04-25T02:46:59;56.55;31.72;72.24;;
72160;Laerm;60045;51.792;10.938;2023-04-25T02:49:25;49.05;30.16;67.11;;
72160;Laerm;60045;51.792;10.938;2023-04-25T02:51:52;60.98;29.49;79.98;;
72160;Laerm;60045;51.792;10.938;2023-04-25T02:54:18;43.07;29.54;60.42;;
72160;Laerm;60045;51.792;10.938;2023-04-25T02:56:44;50.98;29.27;66.74;;
72160;Laerm;60045;51.792;10.938;2023-04-25T02:59:10;53.15;29.16;71.69;;
72160;Laerm;60045;51.792;10.938;2023-04-25T03:01:37;57.09;30.14;72.13;;
72160;Laerm;60045;51.792;10.938;2023-04-25T03:04:04;53.06;29.76;65.73;;
72160;Laerm;60045;51.792;10.938;2023-04-25T03:06:30;57.14;31.33;71.30;;
72160;Laerm;60045;51.792;10.938;2023-04-25T03:08:57;62.67;35.64;79.44;;
72160;Laerm;60045;51.792;10.938;2023-04-25T03:11:24;55.50;37.30;70.16;;
72160;Laerm;60045;51.792;10.938;2023-04-25T03:13:50;59.83;34.84;73.94;;
72160;Laerm;60045;51.792;10.938;2023-04-25T03:16:17;51.81;36.64;64.46;;
72160;Laerm;60045;51.792;10.938;2023-04-25T03:18:43;60.37;37.59;75.85;;
72160;Laerm;60045;51.792;10.938;2023-04-25T03:21:10;63.86;39.02;84.84;;
72160;Laerm;60045;51.792;10.938;2023-04-25T03:23:37;66.44;42.21;86.60;;
72160;Laerm;60045;51.792;10.938;2023-04-25T03:26:03;60.02;38.76;73.03;;
72160;Laerm;60045;51.792;10.938;2023-04-25T03:28:29;55.11;40.75;70.23;;
72160;Laerm;60045;51.792;10.938;2023-04-25T03:30:55;62.10;40.39;76.91;;
72160;Laerm;60045;51.792;10.938;2023-04-25T03:33:22;60.02;39.77;76.91;;
72160;Laerm;60045;51.792;10.938;2023-04-25T03:35:48;61.72;37.97;74.23;;
72160;Laerm;60045;51.792;10.938;2023-04-25T03:38:16;58.76;40.40;73.43;;
72160;Laerm;60045;51.792;10.938;2023-04-25T03:40:42;57.85;38.69;70.37;;
72160;Laerm;60045;51.792;10.938;2023-04-25T03:43:09;65.47;41.60;80.79;;
72160;Laerm;60045;51.792;10.938;2023-04-25T03:45:35;60.76;39.19;78.28;;
72160;Laerm;60045;51.792;10.938;2023-04-25T03:48:01;59.63;39.83;73.46;;
72160;Laerm;60045;51.792;10.938;2023-04-25T03:50:27;60.00;39.15;76.84;;
72160;Laerm;60045;51.792;10.938;2023-04-25T03:52:54;63.63;39.16;80.18;;
72160;Laerm;60045;51.792;10.938;2023-04-25T03:55:21;59.15;37.75;71.57;;
72160;Laerm;60045;51.792;10.938;2023-04-25T03:57:48;61.20;37.70;74.39;;
72160;Laerm;60045;51.792;10.938;2023-04-25T04:00:14;48.99;34.05;62.81;;
72160;Laerm;60045;51.792;10.938;2023-04-25T04:02:40;65.85;39.03;83.81;;
72160;Laerm;60045;51.792;10.938;2023-04-25T04:05:07;58.29;36.23;71.93;;
72160;Laerm;60045;51.792;10.938;2023-04-25T04:07:34;63.03;37.16;81.40;;
72160;Laerm;60045;51.792;10.938;2023-04-25T04:10:04;59.08;37.47;72.24;;
72160;Laerm;60045;51.792;10.938;2023-04-25T04:12:32;59.85;37.41;72.92;;
72160;Laerm;60045;51.792;10.938;2023-04-25T04:14:58;56.57;38.86;72.26;;
72160;Laerm;60045;51.792;10.938;2023-04-25T04:17:25;62.65;36.17;79.20;;
72160;Laerm;60045;51.792;10.938;2023-04-25T04:19:51;57.32;33.75;73.83;;
72160;Laerm;60045;51.792;10.938;2023-04-25T04:22:17;60.47;36.43;73.78;;
72160;Laerm;60045;51.792;10.938;2023-04-25T04:24:43;60.37;34.65;75.50;;
72160;Laerm;60045;51.792;10.938;2023-04-25T04:27:11;52.91;32.81;69.57;;
72160;Laerm;60045;51.792;10.938;2023-04-25T04:29:39;66.08;36.87;83.66;;
72160;Laerm;60045;51.792;10.938;2023-04-25T04:32:05;61.05;36.03;78.42;;
72160;Laerm;60045;51.792;10.938;2023-04-25T04:34:33;66.46;34.45;80.94;;
72160;Laerm;60045;51.792;10.938;2023-04-25T04:36:59;65.39;35.27;79.99;;
72160;Laerm;60045;51.792;10.938;2023-04-25T04:39:26;65.77;37.21;80.26;;
72160;Laerm;60045;51.792;10.938;2023-04-25T04:41:52;58.89;36.53;75.40;;
72160;Laerm;60045;51.792;10.938;2023-04-25T04:44:18;64.88;38.51;77.88;;
72160;Laerm;60045;51.792;10.938;2023-04-25T04:46:46;55.81;32.72;72.03;;
72160;Laerm;60045;51.792;10.938;2023-04-25T04:49:13;61.18;32.77;75.88;;
72160;Laerm;60045;51.792;10.938;2023-04-25T04:51:39;63.07;33.65;77.36;;
72160;Laerm;60045;51.792;10.938;2023-04-25T04:54:09;66.04;36.22;83.15;;
72160;Laerm;60045;51.792;10.938;2023-04-25T04:56:35;61.97;36.96;72.42;;
72160;Laerm;60045;51.792;10.938;2023-04-25T04:59:02;56.52;32.99;74.09;;
72160;Laerm;60045;51.792;10.938;2023-04-25T05:01:28;62.53;36.78;78.40;;
72160;Laerm;60045;51.792;10.938;2023-04-25T05:03:56;57.93;33.95;72.37;;
72160;Laerm;60045;51.792;10.938;2023-04-25T05:06:25;61.73;34.17;74.59;;
72160;Laerm;60045;51.792;10.938;2023-04-25T05:08:51;58.73;36.53;71.94;;
72160;Laerm;60045;51.792;10.938;2023-04-25T05:11:18;56.77;32.73;72.13;;
72160;Laerm;60045;51.792;10.938;2023-04-25T05:13:44;44.43;33.99;60.66;;
72160;Laerm;60045;51.792;10.938;2023-04-25T05:16:10;67.20;39.19;84.56;;
72160;Laerm;60045;51.792;10.938;2023-04-25T05:18:37;62.67;36.78;75.89;;
72160;Laerm;60045;51.792;10.938;2023-04-25T05:21:04;66.68;39.43;79.55;;
72160;Laerm;60045;51.792;10.938;2023-04-25T05:23:31;65.94;40.39;80.25;;
72160;Laerm;60045;51.792;10.938;2023-04-25T05:25:58;58.56;35.61;71.57;;
72160;Laerm;60045;51.792;10.938;2023-04-25T05:28:24;62.02;38.33;75.60;;
72160;Laerm;60045;51.792;10.938;2023-04-25T05:30:50;66.65;37.13;80.01;;
72160;Laerm;60045;51.792;10.938;2023-04-25T05:33:17;60.32;36.08;76.77;;
72160;Laerm;60045;51.792;10.938;2023-04-25T05:35:43;61.37;40.50;73.84;;
72160;Laerm;60045;51.792;10.938;2023-04-25T05:38:11;52.61;39.70;71.83;;
72160;Laerm;60045;51.792;10.938;2023-04-25T05:40:37;62.05;39.96;75.39;;
72160;Laerm;60045;51.792;10.938;2023-04-25T05:43:04;62.50;39.29;74.95;;
72160;Laerm;60045;51.792;10.938;2023-04-25T05:45:30;66.64;39.40;81.21;;
72160;Laerm;60045;51.792;10.938;2023-04-25T05:47:56;69.02;38.02;84.35;;
72160;Laerm;60045;51.792;10.938;2023-04-25T05:50:22;61.63;33.85;75.96;;
72160;Laerm;60045;51.792;10.938;2023-04-25T05:52:49;59.22;33.21;71.75;;
72160;Laerm;60045;51.792;10.938;2023-04-25T05:55:17;61.29;35.60;74.88;;
72160;Laerm;60045;51.792;10.938;2023-04-25T05:57:43;67.30;40.14;81.27;;
72160;Laerm;60045;51.792;10.938;2023-04-25T06:00:11;56.34;34.36;75.37;;
72160;Laerm;60045;51.792;10.938;2023-04-25T06:02:37;67.41;34.86;85.44;;
72160;Laerm;60045;51.792;10.938;2023-04-25T06:05:04;60.04;37.88;73.02;;
72160;Laerm;60045;51.792;10.938;2023-04-25T06:07:30;63.47;40.60;76.03;;
72160;Laerm;60045;51.792;10.938;2023-04-25T06:09:57;50.73;34.08;65.91;;
72160;Laerm;60045;51.792;10.938;2023-04-25T06:12:24;65.92;37.28;82.43;;
72160;Laerm;60045;51.792;10.938;2023-04-25T06:14:51;59.46;34.63;72.35;;
72160;Laerm;60045;51.792;10.938;2023-04-25T06:17:17;65.03;33.97;80.58;;
72160;Laerm;60045;51.792;10.938;2023-04-25T06:19:43;57.74;34.81;74.38;;
72160;Laerm;60045;51.792;10.938;2023-04-25T06:22:09;62.34;32.88;80.40;;
72160;Laerm;60045;51.792;10.938;2023-04-25T06:24:36;66.92;38.33;80.30;;
72160;Laerm;60045;51.792;10.938;2023-04-25T06:27:02;66.43;40.62;81.11;;
72160;Laerm;60045;51.792;10.938;2023-04-25T06:29:30;65.16;35.43;78.57;;
72160;Laerm;60045;51.792;10.938;2023-04-25T06:31:56;64.62;35.78;76.74;;
72160;Laerm;60045;51.792;10.938;2023-04-25T06:34:22;56.51;32.04;73.14;;
72160;Laerm;60045;51.792;10.938;2023-04-25T06:36:49;56.01;32.51;72.66;;
72160;Laerm;60045;51.792;10.938;2023-04-25T06:39:15;54.71;31.55;71.11;;
72160;Laerm;60045;51.792;10.938;2023-04-25T06:41:41;56.56;31.80;75.00;;
72160;Laerm;60045;51.792;10.938;2023-04-25T06:44:08;65.49;33.24;80.75;;
72160;Laerm;60045;51.792;10.938;2023-04-25T06:46:35;65.21;34.18;80.02;;
72160;Laerm;60045;51.792;10.938;2023-04-25T06:49:02;61.50;33.08;76.26;;
72160;Laerm;60045;51.792;10.938;2023-04-25T06:51:28;67.24;35.07;81.66;;
72160;Laerm;60045;51.792;10.938;2023-04-25T06:53:55;56.21;33.26;74.27;;
72160;Laerm;60045;51.792;10.938;2023-04-25T06:56:21;61.82;33.52;79.30;;
72160;Laerm;60045;51.792;10.938;2023-04-25T06:58:48;64.19;34.88;80.06;;
72160;Laerm;60045;51.792;10.938;2023-04-25T07:01:14;65.00;33.56;80.27;;
72160;Laerm;60045;51.792;10.938;2023-04-25T07:03:42;63.80;36.16;80.85;;
72160;Laerm;60045;51.792;10.938;2023-04-25T07:06:08;59.46;34.64;77.16;;
72160;Laerm;60045;51.792;10.938;2023-04-25T07:08:34;63.50;36.31;79.92;;
72160;Laerm;60045;51.792;10.938;2023-04-25T07:11:00;61.65;37.42;76.16;;
72160;Laerm;60045;51.792;10.938;2023-04-25T07:13:27;65.73;36.83;80.00;;
72160;Laerm;60045;51.792;10.938;2023-04-25T07:15:53;57.22;33.26;73.39;;
72160;Laerm;60045;51.792;10.938;2023-04-25T07:18:19;58.11;33.43;72.67;;
72160;Laerm;60045;51.792;10.938;2023-04-25T07:20:47;64.44;36.44;81.38;;
72160;Laerm;60045;51.792;10.938;2023-04-25T07:23:13;60.77;32.42;74.92;;
72160;Laerm;60045;51.792;10.938;2023-04-25T07:25:39;56.94;35.50;70.00;;
72160;Laerm;60045;51.792;10.938;2023-04-25T07:28:06;58.35;31.87;74.88;;
72160;Laerm;60045;51.792;10.938;2023-04-25T07:30:32;62.41;33.11;76.53;;
72160;Laerm;60045;51.792;10.938;2023-04-25T07:32:59;54.01;32.68;70.77;;
72160;Laerm;60045;51.792;10.938;2023-04-25T07:35:26;59.35;33.57;76.20;;
72160;Laerm;60045;51.792;10.938;2023-04-25T07:37:53;61.53;35.99;77.69;;
72160;Laerm;60045;51.792;10.938;2023-04-25T07:40:20;65.47;32.53;82.68;;
72160;Laerm;60045;51.792;10.938;2023-04-25T07:42:46;55.09;31.87;69.88;;
72160;Laerm;60045;51.792;10.938;2023-04-25T07:45:12;59.36;33.40;75.71;;
72160;Laerm;60045;51.792;10.938;2023-04-25T07:47:39;64.10;35.66;78.87;;
72160;Laerm;60045;51.792;10.938;2023-04-25T07:50:06;65.15;41.00;84.98;;
72160;Laerm;60045;51.792;10.938;2023-04-25T07:52:32;57.65;35.36;72.41;;
72160;Laerm;60045;51.792;10.938;2023-04-25T07:54:59;57.83;34.52;73.26;;
72160;Laerm;60045;51.792;10.938;2023-04-25T07:57:26;68.11;33.20;84.22;;
72160;Laerm;60045;51.792;10.938;2023-04-25T07:59:52;61.58;36.53;75.63;;
72160;Laerm;60045;51.792;10.938;2023-04-25T08:02:18;56.26;34.08;75.54;;
72160;Laerm;60045;51.792;10.938;2023-04-25T08:04:44;58.01;34.27;75.87;;
72160;Laerm;60045;51.792;10.938;2023-04-25T08:07:11;63.48;36.08;78.77;;
72160;Laerm;60045;51.792;10.938;2023-04-25T08:09:37;63.55;36.10;81.34;;
72160;Laerm;60045;51.792;10.938;2023-04-25T08:12:05;64.24;32.97;78.83;;
72160;Laerm;60045;51.792;10.938;2023-04-25T08:14:32;58.60;33.35;72.33;;
72160;Laerm;60045;51.792;10.938;2023-04-25T08:17:00;63.84;33.77;80.51;;
72160;Laerm;60045;51.792;10.938;2023-04-25T08:19:27;55.38;33.76;71.19;;
72160;Laerm;60045;51.792;10.938;2023-04-25T08:21:53;56.47;34.06;70.40;;
72160;Laerm;60045;51.792;10.938;2023-04-25T08:24:21;54.25;33.19;67.34;;
72160;Laerm;60045;51.792;10.938;2023-04-25T08:26:47;61.42;33.44;76.33;;
72160;Laerm;60045;51.792;10.938;2023-04-25T08:29:15;62.98;34.08;80.47;;
72160;Laerm;60045;51.792;10.938;2023-04-25T08:31:41;63.25;37.83;78.34;;
72160;Laerm;60045;51.792;10.938;2023-04-25T08:34:07;65.42;40.43;82.40;;
72160;Laerm;60045;51.792;10.938;2023-04-25T08:36:34;64.94;37.85;81.77;;
72160;Laerm;60045;51.792;10.938;2023-04-25T08:39:00;63.79;35.36;80.99;;
72160;Laerm;60045;51.792;10.938;2023-04-25T08:41:27;61.09;39.48;71.98;;
72160;Laerm;60045;51.792;10.938;2023-04-25T08:43:53;58.95;34.55;74.22;;
72160;Laerm;60045;51.792;10.938;2023-04-25T08:46:23;62.79;33.48;77.55;;
72160;Laerm;60045;51.792;10.938;2023-04-25T08:48:50;63.37;35.29;77.43;;
72160;Laerm;60045;51.792;10.938;2023-04-25T08:51:20;63.62;35.42;79.94;;
72160;Laerm;60045;51.792;10.938;2023-04-25T08:53:48;60.21;33.95;73.53;;
72160;Laerm;60045;51.792;10.938;2023-04-25T08:56:17;61.22;34.88;78.72;;
72160;Laerm;60045;51.792;10.938;2023-04-25T08:58:45;60.51;37.68;73.32;;
72160;Laerm;60045;51.792;10.938;2023-04-25T09:01:13;57.97;34.63;72.36;;
72160;Laerm;60045;51.792;10.938;2023-04-25T09:03:41;64.67;37.67;82.32;;
72160;Laerm;60045;51.792;10.938;2023-04-25T09:06:09;65.54;35.95;81.23;;
72160;Laerm;60045;51.792;10.938;2023-04-25T09:08:36;57.66;34.35;76.25;;
72160;Laerm;60045;51.792;10.938;2023-04-25T09:11:03;64.82;37.05;81.02;;
72160;Laerm;60045;51.792;10.938;2023-04-25T09:13:29;62.85;34.98;77.59;;
72160;Laerm;60045;51.792;10.938;2023-04-25T09:15:56;54.93;34.21;70.98;;
72160;Laerm;60045;51.792;10.938;2023-04-25T09:18:23;60.37;35.78;74.57;;
72160;Laerm;60045;51.792;10.938;2023-04-25T09:20:52;62.45;35.54;73.19;;
72160;Laerm;60045;51.792;10.938;2023-04-25T09:23:19;53.66;33.36;69.57;;
72160;Laerm;60045;51.792;10.938;2023-04-25T09:25:46;67.84;39.18;86.87;;
72160;Laerm;60045;51.792;10.938;2023-04-25T09:28:13;61.07;34.90;76.53;;
72160;Laerm;60045;51.792;10.938;2023-04-25T09:30:39;60.64;34.22;75.74;;
72160;Laerm;60045;51.792;10.938;2023-04-25T09:33:05;65.66;36.38;80.84;;
72160;Laerm;60045;51.792;10.938;2023-04-25T09:35:35;63.41;35.89;74.93;;
72160;Laerm;60045;51.792;10.938;2023-04-25T09:38:02;58.82;34.43;73.92;;
72160;Laerm;60045;51.792;10.938;2023-04-25T09:40:32;63.11;35.32;78.20;;
72160;Laerm;60045;51.792;10.938;2023-04-25T09:42:59;61.18;34.38;74.33;;
72160;Laerm;60045;51.792;10.938;2023-04-25T09:45:25;53.73;34.22;70.01;;
72160;Laerm;60045;51.792;10.938;2023-04-25T09:47:55;64.68;34.45;81.61;;
72160;Laerm;60045;51.792;10.938;2023-04-25T09:50:22;63.73;33.83;79.92;;
72160;Laerm;60045;51.792;10.938;2023-04-25T09:53:03;60.26;35.65;75.04;;
72160;Laerm;60045;51.792;10.938;2023-04-25T09:55:29;61.25;36.13;77.30;;
72160;Laerm;60045;51.792;10.938;2023-04-25T09:57:57;59.04;34.49;75.92;;
72160;Laerm;60045;51.792;10.938;2023-04-25T10:00:28;61.86;35.79;76.79;;
72160;Laerm;60045;51.792;10.938;2023-04-25T10:02:54;63.37;35.41;80.79;;
72160;Laerm;60045;51.792;10.938;2023-04-25T10:05:22;57.09;33.34;72.59;;
72160;Laerm;60045;51.792;10.938;2023-04-25T10:07:49;63.68;33.06;79.68;;
72160;Laerm;60045;51.792;10.938;2023-04-25T10:10:18;54.26;32.50;71.09;;
72160;Laerm;60045;51.792;10.938;2023-04-25T10:12:48;64.35;31.50;79.03;;
72160;Laerm;60045;51.792;10.938;2023-04-25T10:15:14;62.00;33.45;75.86;;
72160;Laerm;60045;51.792;10.938;2023-04-25T10:17:41;55.29;32.36;71.81;;
72160;Laerm;60045;51.792;10.938;2023-04-25T10:20:07;52.58;31.35;69.39;;
72160;Laerm;60045;51.792;10.938;2023-04-25T10:22:36;61.38;32.47;77.88;;
72160;Laerm;60045;51.792;10.938;2023-04-25T10:25:03;59.98;36.39;76.31;;
72160;Laerm;60045;51.792;10.938;2023-04-25T10:27:31;66.63;38.69;84.70;;
72160;Laerm;60045;51.792;10.938;2023-04-25T10:30:00;59.29;38.68;70.73;;
72160;Laerm;60045;51.792;10.938;2023-04-25T10:32:27;60.54;35.73;74.94;;
72160;Laerm;60045;51.792;10.938;2023-04-25T10:34:53;61.55;35.25;77.70;;
72160;Laerm;60045;51.792;10.938;2023-04-25T10:37:20;66.95;40.30;81.62;;
72160;Laerm;60045;51.792;10.938;2023-04-25T10:39:46;58.90;35.66;77.65;;
72160;Laerm;60045;51.792;10.938;2023-04-25T10:42:12;57.26;34.30;72.30;;
72160;Laerm;60045;51.792;10.938;2023-04-25T10:44:40;56.86;34.19;72.88;;
72160;Laerm;60045;51.792;10.938;2023-04-25T10:47:06;65.30;40.30;79.34;;
72160;Laerm;60045;51.792;10.938;2023-04-25T10:49:33;62.99;33.74;79.38;;
72160;Laerm;60045;51.792;10.938;2023-04-25T10:52:16;59.24;32.33;75.11;;
72160;Laerm;60045;51.792;10.938;2023-04-25T10:54:45;61.21;37.77;74.56;;
72160;Laerm;60045;51.792;10.938;2023-04-25T10:57:31;62.07;37.86;78.57;;
72160;Laerm;60045;51.792;10.938;2023-04-25T11:00:00;60.25;36.45;75.12;;
72160;Laerm;60045;51.792;10.938;2023-04-25T11:02:31;59.48;36.54;73.02;;
72160;Laerm;60045;51.792;10.938;2023-04-25T11:04:57;64.08;37.74;78.68;;
72160;Laerm;60045;51.792;10.938;2023-04-25T11:07:26;62.71;40.68;79.06;;
72160;Laerm;60045;51.792;10.938;2023-04-25T11:09:54;62.99;37.89;79.46;;
72160;Laerm;60045;51.792;10.938;2023-04-25T11:12:21;60.45;36.13;73.58;;
72160;Laerm;60045;51.792;10.938;2023-04-25T11:14:47;60.92;36.02;75.65;;
72160;Laerm;60045;51.792;10.938;2023-04-25T11:17:15;66.45;40.98;80.31;;
72160;Laerm;60045;51.792;10.938;2023-04-25T11:19:41;63.24;34.30;82.48;;
72160;Laerm;60045;51.792;10.938;2023-04-25T11:22:07;66.78;40.16;81.53;;
72160;Laerm;60045;51.792;10.938;2023-04-25T11:24:34;61.31;41.32;74.70;;
72160;Laerm;60045;51.792;10.938;2023-04-25T11:27:01;62.75;39.67;77.25;;
72160;Laerm;60045;51.792;10.938;2023-04-25T11:29:28;60.04;31.65;78.23;;
72160;Laerm;60045;51.792;10.938;2023-04-25T11:31:55;60.81;34.33;72.68;;
72160;Laerm;60045;51.792;10.938;2023-04-25T11:34:24;63.56;41.67;79.54;;
72160;Laerm;60045;51.792;10.938;2023-04-25T11:36:51;61.07;40.98;72.96;;
72160;Laerm;60045;51.792;10.938;2023-04-25T11:39:18;60.62;39.05;73.09;;
72160;Laerm;60045;51.792;10.938;2023-04-25T11:41:44;67.03;40.97;80.60;;
72160;Laerm;60045;51.792;10.938;2023-04-25T11:44:10;60.73;36.96;74.75;;
72160;Laerm;60045;51.792;10.938;2023-04-25T11:46:37;59.29;38.47;73.32;;
72160;Laerm;60045;51.792;10.938;2023-04-25T11:49:03;61.69;37.09;76.71;;
72160;Laerm;60045;51.792;10.938;2023-04-25T11:51:31;59.98;35.67;75.95;;
72160;Laerm;60045;51.792;10.938;2023-04-25T11:54:03;61.99;34.77;79.36;;
72160;Laerm;60045;51.792;10.938;2023-04-25T11:56:30;61.80;35.03;76.57;;
72160;Laerm;60045;51.792;10.938;2023-04-25T11:58:57;57.19;33.93;73.37;;
72160;Laerm;60045;51.792;10.938;2023-04-25T12:01:26;54.37;33.55;68.01;;
72160;Laerm;60045;51.792;10.938;2023-04-25T12:03:52;62.34;36.34;76.94;;
72160;Laerm;60045;51.792;10.938;2023-04-25T12:06:19;54.73;33.60;71.29;;
72160;Laerm;60045;51.792;10.938;2023-04-25T12:08:59;63.66;39.61;78.85;;
72160;Laerm;60045;51.792;10.938;2023-04-25T12:11:26;62.94;33.27;80.78;;
72160;Laerm;60045;51.792;10.938;2023-04-25T12:13:52;60.46;35.83;73.39;;
72160;Laerm;60045;51.792;10.938;2023-04-25T12:16:18;58.60;34.33;72.08;;
72160;Laerm;60045;51.792;10.938;2023-04-25T12:18:45;64.76;32.51;84.17;;
72160;Laerm;60045;51.792;10.938;2023-04-25T12:21:11;65.32;34.14;79.80;;
72160;Laerm;60045;51.792;10.938;2023-04-25T12:23:38;62.87;35.73;77.58;;
72160;Laerm;60045;51.792;10.938;2023-04-25T12:26:06;62.43;35.39;77.76;;
72160;Laerm;60045;51.792;10.938;2023-04-25T12:28:33;62.81;32.79;79.45;;
72160;Laerm;60045;51.792;10.938;2023-04-25T12:31:00;59.09;34.59;74.43;;
72160;Laerm;60045;51.792;10.938;2023-04-25T12:33:27;59.24;34.88;71.00;;
72160;Laerm;60045;51.792;10.938;2023-04-25T12:35:54;61.65;34.72;77.17;;
72160;Laerm;60045;51.792;10.938;2023-04-25T12:38:21;63.36;37.04;77.33;;
72160;Laerm;60045;51.792;10.938;2023-04-25T12:40:48;62.93;34.97;78.49;;
72160;Laerm;60045;51.792;10.938;2023-04-25T12:43:15;54.29;33.03;69.58;;
72160;Laerm;60045;51.792;10.938;2023-04-25T12:45:42;57.32;32.93;70.87;;
72160;Laerm;60045;51.792;10.938;2023-04-25T12:48:08;54.91;32.60;70.60;;
72160;Laerm;60045;51.792;10.938;2023-04-25T12:50:34;61.69;34.90;79.03;;
72160;Laerm;60045;51.792;10.938;2023-04-25T12:53:01;51.89;31.90;67.56;;
72160;Laerm;60045;51.792;10.938;2023-04-25T12:55:27;61.87;35.55;73.16;;
72160;Laerm;60045;51.792;10.938;2023-04-25T12:57:53;56.12;33.66;72.42;;
72160;Laerm;60045;51.792;10.938;2023-04-25T13:00:21;62.96;37.85;77.35;;
72160;Laerm;60045;51.792;10.938;2023-04-25T13:02:47;58.65;36.88;74.07;;
72160;Laerm;60045;51.792;10.938;2023-04-25T13:05:13;60.77;35.42;75.31;;
72160;Laerm;60045;51.792;10.938;2023-04-25T13:07:40;63.24;37.52;72.75;;
72160;Laerm;60045;51.792;10.938;2023-04-25T13:10:06;65.92;38.93;86.25;;
72160;Laerm;60045;51.792;10.938;2023-04-25T13:12:33;59.67;36.72;73.97;;
72160;Laerm;60045;51.792;10.938;2023-04-25T13:14:59;63.97;40.47;76.82;;
72160;Laerm;60045;51.792;10.938;2023-04-25T13:17:26;59.73;34.82;73.72;;
72160;Laerm;60045;51.792;10.938;2023-04-25T13:19:53;59.94;35.39;72.10;;
72160;Laerm;60045;51.792;10.938;2023-04-25T13:22:19;63.59;35.52;76.27;;
72160;Laerm;60045;51.792;10.938;2023-04-25T13:24:46;61.33;35.44;74.10;;
72160;Laerm;60045;51.792;10.938;2023-04-25T13:27:12;58.81;34.54;73.71;;
72160;Laerm;60045;51.792;10.938;2023-04-25T13:29:38;63.55;35.85;80.04;;